createdAt,value
2023-03-12T00:02:13.952Z,4.97
2023-03-12T00:04:40.976Z,6.15
2023-03-12T00:07:09.049Z,5.30
2023-03-12T00:09:37.763Z,5.97
2023-03-12T00:12:06.259Z,6.63
2023-03-12T00:14:33.698Z,5.90
2023-03-12T00:17:00.808Z,7.47
2023-03-12T00:19:27.868Z,7.07
2023-03-12T00:21:54.995Z,6.43
2023-03-12T00:24:22.125Z,8.48
2023-03-12T00:26:49.129Z,7.15
2023-03-12T00:29:16.168Z,7.05
2023-03-12T00:31:43.284Z,7.73
2023-03-12T00:34:10.906Z,7.30
2023-03-12T00:36:38.175Z,7.00
2023-03-12T00:39:05.166Z,7.32
2023-03-12T00:41:32.238Z,8.15
2023-03-12T00:43:59.318Z,8.30
2023-03-12T00:46:26.441Z,7.55
2023-03-12T00:48:53.451Z,10.18
2023-03-12T00:51:20.827Z,10.05
2023-03-12T00:53:48.122Z,10.20
2023-03-12T00:56:15.694Z,9.77
2023-03-12T00:58:43.608Z,10.82
2023-03-12T01:01:11.382Z,10.10
2023-03-12T01:03:39.162Z,9.07
2023-03-12T01:06:06.470Z,9.88
2023-03-12T01:08:34.021Z,9.77
2023-03-12T01:11:01.197Z,9.93
2023-03-12T01:13:28.919Z,11.32
2023-03-12T01:15:56.092Z,12.80
2023-03-12T01:18:23.528Z,12.90
2023-03-12T01:20:50.931Z,13.33
2023-03-12T01:23:17.964Z,13.30
2023-03-12T01:25:45.048Z,14.07
2023-03-12T01:28:12.056Z,16.00
2023-03-12T01:30:39.292Z,15.98
2023-03-12T01:33:06.262Z,12.90
2023-03-12T01:35:37.813Z,12.75
2023-03-12T01:38:06.939Z,17.35
2023-03-12T01:40:35.996Z,16.83
2023-03-12T01:43:26.280Z,17.30
2023-03-12T01:46:03.631Z,16.23
2023-03-12T01:48:40.169Z,15.25
2023-03-12T01:51:10.698Z,15.73
2023-03-12T01:53:38.662Z,14.73
2023-03-12T01:56:06.753Z,15.90
2023-03-12T01:58:38.166Z,13.70
2023-03-12T02:01:06.024Z,15.07
2023-03-12T02:03:35.167Z,13.20
2023-03-12T02:06:04.805Z,13.20
2023-03-12T02:08:31.758Z,12.65
2023-03-12T02:10:58.726Z,12.70
2023-03-12T02:13:26.043Z,10.38
2023-03-12T02:15:53.201Z,12.43
2023-03-12T02:18:21.645Z,11.65
2023-03-12T02:21:20.249Z,12.82
2023-03-12T02:23:59.389Z,10.57
2023-03-12T02:26:30.016Z,10.70
2023-03-12T02:29:00.670Z,10.90
2023-03-12T02:31:35.166Z,8.98
2023-03-12T02:34:02.342Z,11.00
2023-03-12T02:36:29.574Z,10.00
2023-03-12T02:38:57.114Z,10.20
2023-03-12T02:41:32.310Z,10.60
2023-03-12T02:44:08.157Z,10.27
2023-03-12T02:46:57.595Z,10.23
2023-03-12T02:49:28.532Z,9.87
2023-03-12T02:51:56.574Z,9.88
2023-03-12T02:54:24.429Z,9.02
2023-03-12T02:56:52.294Z,10.25
2023-03-12T02:59:21.984Z,10.23
2023-03-12T03:01:57.955Z,9.50
2023-03-12T03:04:25.852Z,9.05
2023-03-12T03:06:53.014Z,9.40
2023-03-12T03:09:22.488Z,9.52
2023-03-12T03:11:50.869Z,9.40
2023-03-12T03:14:18.752Z,8.27
2023-03-12T03:16:49.001Z,8.77
2023-03-12T03:19:16.294Z,8.07
2023-03-12T03:21:43.974Z,7.85
2023-03-12T03:24:11.474Z,8.25
2023-03-12T03:26:38.670Z,9.87
2023-03-12T03:29:05.742Z,8.63
2023-03-12T03:31:32.878Z,8.55
2023-03-12T03:34:00.005Z,8.05
2023-03-12T03:36:27.341Z,8.27
2023-03-12T03:39:01.342Z,9.20
2023-03-12T03:41:33.071Z,8.98
2023-03-12T03:44:00.465Z,8.73
2023-03-12T03:46:30.053Z,7.97
2023-03-12T03:49:04.110Z,8.70
2023-03-12T03:51:33.187Z,10.50
2023-03-12T03:54:05.333Z,9.52
2023-03-12T03:56:32.675Z,9.65
2023-03-12T03:59:02.125Z,10.93
2023-03-12T04:01:31.560Z,10.43
2023-03-12T04:04:00.480Z,10.33
2023-03-12T04:06:29.945Z,10.07
2023-03-12T04:08:58.464Z,10.15
2023-03-12T04:11:26.793Z,10.48
2023-03-12T04:13:55.520Z,9.30
2023-03-12T04:16:25.855Z,11.50
2023-03-12T04:18:54.737Z,10.90
2023-03-12T04:21:23.030Z,11.07
2023-03-12T04:23:51.359Z,10.63
2023-03-12T04:26:23.497Z,10.77
2023-03-12T04:28:50.611Z,10.47
2023-03-12T04:31:17.986Z,10.45
2023-03-12T04:33:50.194Z,10.93
2023-03-12T04:36:18.610Z,10.30
2023-03-12T04:38:48.465Z,10.43
2023-03-12T04:41:18.436Z,9.37
2023-03-12T04:43:53.341Z,9.63
2023-03-12T04:46:22.207Z,10.57
2023-03-12T04:48:49.406Z,10.32
2023-03-12T04:51:17.311Z,10.45
2023-03-12T04:53:44.539Z,10.63
2023-03-12T04:56:13.478Z,11.25
2023-03-12T04:58:41.825Z,10.23
2023-03-12T05:01:24.420Z,10.02
2023-03-12T05:03:52.389Z,9.95
2023-03-12T05:06:19.970Z,9.60
2023-03-12T05:08:48.083Z,11.43
2023-03-12T05:11:16.245Z,11.30
2023-03-12T05:13:43.722Z,11.30
2023-03-12T05:16:12.244Z,11.30
2023-03-12T05:18:39.357Z,10.20
2023-03-12T05:21:09.170Z,11.65
2023-03-12T05:23:36.911Z,10.27
2023-03-12T05:26:04.066Z,9.88
2023-03-12T05:28:31.053Z,9.77
2023-03-12T05:31:01.924Z,9.80
2023-03-12T05:33:30.647Z,10.40
2023-03-12T05:36:00.873Z,10.68
2023-03-12T05:38:29.356Z,9.98
2023-03-12T05:40:59.328Z,9.77
2023-03-12T05:43:29.772Z,10.57
2023-03-12T05:46:02.184Z,9.95
2023-03-12T05:48:30.307Z,11.98
2023-03-12T05:50:58.095Z,8.52
2023-03-12T05:53:25.437Z,11.30
2023-03-12T05:55:53.776Z,11.80
2023-03-12T05:58:20.999Z,11.52
2023-03-12T06:00:48.436Z,10.65
2023-03-12T06:03:15.935Z,10.07
2023-03-12T06:05:44.637Z,11.70
2023-03-12T06:08:11.855Z,12.03
2023-03-12T06:10:39.763Z,11.68
2023-03-12T06:13:08.836Z,11.43
2023-03-12T06:15:36.068Z,12.85
2023-03-12T06:18:05.470Z,12.43
2023-03-12T06:20:35.820Z,12.90
2023-03-12T06:23:03.021Z,13.10
2023-03-12T06:25:32.342Z,13.77
2023-03-12T06:27:59.491Z,11.60
2023-03-12T06:30:27.746Z,12.25
2023-03-12T06:32:55.283Z,11.70
2023-03-12T06:35:22.393Z,13.80
2023-03-12T06:37:49.481Z,14.02
2023-03-12T06:40:16.642Z,13.45
2023-03-12T06:42:43.584Z,13.43
2023-03-12T06:45:11.001Z,14.23
2023-03-12T06:47:38.016Z,14.95
2023-03-12T06:50:05.612Z,14.65
2023-03-12T06:52:33.246Z,15.30
2023-03-12T06:55:00.309Z,16.13
2023-03-12T06:57:27.335Z,14.23
2023-03-12T06:59:54.278Z,13.20
2023-03-12T07:02:21.345Z,16.05
2023-03-12T07:04:48.432Z,15.70
2023-03-12T07:07:17.139Z,14.68
2023-03-12T07:09:44.284Z,16.10
2023-03-12T07:12:11.399Z,15.77
2023-03-12T07:14:38.368Z,14.80
2023-03-12T07:17:05.588Z,14.40
2023-03-12T07:19:32.641Z,15.02
2023-03-12T07:21:59.791Z,15.20
2023-03-12T07:24:26.799Z,14.80
2023-03-12T07:26:53.758Z,15.00
2023-03-12T07:29:20.778Z,14.65
2023-03-12T07:31:47.865Z,15.32
2023-03-12T07:34:15.275Z,13.80
2023-03-12T07:36:42.478Z,13.70
2023-03-12T07:39:09.588Z,14.07
2023-03-12T07:41:37.585Z,13.48
2023-03-12T07:44:05.593Z,14.25
2023-03-12T07:46:32.975Z,13.27
2023-03-12T07:49:00.023Z,13.95
2023-03-12T07:51:27.481Z,12.60
2023-03-12T07:53:54.455Z,13.90
2023-03-12T07:56:21.635Z,11.95
2023-03-12T07:58:48.888Z,10.93
2023-03-12T08:01:16.129Z,13.77
2023-03-12T08:03:43.529Z,12.30
2023-03-12T08:06:11.014Z,11.07
2023-03-12T08:08:41.854Z,10.90
2023-03-12T08:11:09.623Z,10.97
2023-03-12T08:13:36.690Z,11.38
2023-03-12T08:16:03.870Z,12.27
2023-03-12T08:18:30.951Z,12.30
2023-03-12T08:20:57.965Z,11.75
2023-03-12T08:23:25.216Z,13.17
2023-03-12T08:25:52.691Z,11.85
2023-03-12T08:28:21.393Z,12.52
2023-03-12T08:30:54.275Z,12.18
2023-03-12T08:33:22.553Z,11.52
2023-03-12T08:35:49.992Z,10.70
2023-03-12T08:38:17.513Z,11.77
2023-03-12T08:40:45.023Z,9.00
2023-03-12T08:43:12.034Z,10.77
2023-03-12T08:45:39.210Z,11.57
2023-03-12T08:48:07.366Z,9.70
2023-03-12T08:50:34.529Z,11.68
2023-03-12T08:53:01.692Z,11.90
2023-03-12T08:55:28.741Z,10.32
2023-03-12T08:57:56.573Z,10.02
2023-03-12T09:00:25.229Z,9.67
2023-03-12T09:02:54.154Z,10.23
2023-03-12T09:05:21.372Z,9.95
2023-03-12T09:07:50.135Z,10.27
2023-03-12T09:10:17.790Z,8.60
2023-03-12T09:12:45.339Z,10.17
2023-03-12T09:15:12.429Z,8.45
2023-03-12T09:17:40.088Z,11.20
2023-03-12T09:20:08.999Z,10.43
2023-03-12T09:22:37.399Z,10.45
2023-03-12T09:25:05.779Z,11.27
2023-03-12T09:27:39.943Z,10.30
2023-03-12T09:30:08.616Z,9.20
2023-03-12T09:32:35.690Z,9.07
2023-03-12T09:35:03.343Z,7.90
2023-03-12T09:37:32.478Z,9.07
2023-03-12T09:40:00.197Z,8.75
2023-03-12T09:42:50.472Z,8.45
2023-03-12T09:45:22.825Z,9.88
2023-03-12T09:47:53.457Z,10.43
2023-03-12T09:50:26.320Z,11.23
2023-03-12T09:53:05.258Z,10.93
2023-03-12T09:55:41.128Z,12.15
2023-03-12T09:58:22.684Z,11.82
2023-03-12T10:00:49.710Z,9.13
2023-03-12T10:03:54.964Z,7.87
2023-03-12T10:06:25.061Z,6.03
2023-03-12T10:09:07.059Z,6.30
2023-03-12T10:11:57.761Z,5.32
2023-03-12T10:14:52.029Z,6.32
2023-03-12T10:17:21.954Z,6.13
2023-03-12T10:19:57.789Z,6.25
2023-03-12T10:23:12.194Z,7.05
2023-03-12T10:25:57.383Z,5.75
2023-03-12T10:28:49.319Z,5.28
2023-03-12T10:31:21.841Z,5.83
2023-03-12T10:33:56.170Z,5.97
2023-03-12T10:36:28.813Z,5.78
2023-03-12T10:38:56.135Z,6.60
2023-03-12T10:41:33.425Z,6.13
2023-03-12T10:44:07.852Z,6.30
2023-03-12T10:46:37.879Z,6.20
2023-03-12T10:49:24.127Z,5.93
2023-03-12T10:52:06.341Z,6.13
2023-03-12T10:54:33.306Z,6.10
2023-03-12T10:57:01.812Z,6.53
2023-03-12T10:59:37.491Z,6.15
2023-03-12T11:02:24.437Z,6.95
2023-03-12T11:04:52.705Z,6.80
2023-03-12T11:07:28.132Z,7.00
2023-03-12T11:10:07.381Z,6.57
2023-03-12T11:12:39.964Z,7.70
2023-03-12T11:15:19.018Z,6.85
2023-03-12T11:17:46.417Z,6.85
2023-03-12T11:20:22.452Z,6.30
2023-03-12T11:22:51.496Z,6.50
2023-03-12T11:25:28.648Z,5.90
2023-03-12T11:27:59.901Z,6.53
2023-03-12T11:30:36.862Z,5.90
2023-03-12T11:33:04.400Z,5.78
2023-03-12T11:36:03.924Z,6.00
2023-03-12T11:39:00.583Z,6.40
2023-03-12T11:41:51.292Z,6.50
2023-03-12T11:44:33.357Z,5.97
2023-03-12T11:47:16.828Z,2.50
2023-03-12T11:50:17.865Z,2.40
2023-03-12T11:53:12.181Z,2.88
2023-03-12T11:55:55.151Z,2.60
2023-03-12T11:58:59.583Z,2.15
2023-03-12T12:01:26.640Z,2.10
2023-03-12T12:04:13.471Z,1.90
2023-03-12T12:06:57.964Z,2.08
2023-03-12T12:09:32.410Z,1.92
2023-03-12T12:12:10.721Z,1.80
2023-03-12T12:15:06.781Z,1.77
2023-03-12T12:17:39.880Z,1.97
2023-03-12T12:20:29.093Z,1.80
2023-03-12T12:23:02.236Z,1.80
2023-03-12T12:25:52.825Z,1.58
2023-03-12T12:28:54.274Z,1.63
2023-03-12T12:31:36.513Z,1.60
2023-03-12T12:34:30.423Z,1.77
2023-03-12T12:37:13.117Z,1.90
2023-03-12T12:39:47.035Z,1.77
2023-03-12T12:42:22.076Z,1.90
2023-03-12T12:44:52.660Z,1.77
2023-03-12T12:47:30.292Z,2.10
2023-03-12T12:49:59.984Z,1.92
2023-03-12T12:52:27.659Z,1.95
2023-03-12T12:55:20.266Z,1.83
2023-03-12T12:57:58.143Z,1.73
2023-03-12T13:00:36.464Z,2.10
2023-03-12T13:03:04.469Z,1.77
2023-03-12T13:05:37.524Z,2.22
2023-03-12T13:08:08.809Z,1.83
2023-03-12T13:10:35.788Z,2.00
2023-03-12T13:13:21.170Z,1.77
2023-03-12T13:15:48.515Z,2.15
2023-03-12T13:18:22.220Z,1.65
2023-03-12T13:20:52.014Z,2.28
2023-03-12T13:23:24.788Z,1.80
2023-03-12T13:26:20.559Z,1.80
2023-03-12T13:28:56.724Z,3.25
2023-03-12T13:31:29.823Z,2.00
2023-03-12T13:33:59.110Z,2.00
2023-03-12T13:36:28.845Z,2.00
2023-03-12T13:39:06.609Z,1.85
2023-03-12T13:41:41.093Z,2.30
2023-03-12T13:44:23.279Z,2.60
2023-03-12T13:47:25.145Z,2.72
2023-03-12T13:50:00.177Z,2.53
2023-03-12T13:52:41.220Z,2.20
2023-03-12T13:55:14.602Z,2.88
2023-03-12T13:57:45.566Z,2.40
2023-03-12T14:00:18.677Z,2.72
2023-03-12T14:02:52.140Z,2.10
2023-03-12T14:05:20.560Z,2.70
2023-03-12T14:07:59.856Z,2.90
2023-03-12T14:10:36.907Z,2.53
2023-03-12T14:13:39.877Z,2.50
2023-03-12T14:16:46.048Z,2.50
2023-03-12T14:19:15.068Z,2.72
2023-03-12T14:21:44.426Z,2.53
2023-03-12T14:24:40.694Z,2.33
2023-03-12T14:27:15.497Z,2.20
2023-03-12T14:29:45.583Z,2.60
2023-03-12T14:32:25.637Z,2.58
2023-03-12T14:35:31.280Z,2.33
2023-03-12T14:38:01.351Z,2.30
2023-03-12T14:40:49.517Z,2.30
2023-03-12T14:43:25.363Z,2.13
2023-03-12T14:45:56.700Z,2.13
2023-03-12T14:48:29.058Z,2.20
2023-03-12T14:50:57.753Z,2.20
2023-03-12T14:53:29.673Z,2.38
2023-03-12T14:56:07.063Z,2.33
2023-03-12T14:58:36.859Z,2.30
2023-03-12T15:01:07.204Z,2.90
2023-03-12T15:03:43.636Z,2.72
2023-03-12T15:06:47.237Z,2.90
2023-03-12T15:09:26.055Z,2.30
2023-03-12T15:11:56.783Z,3.03
2023-03-12T15:14:26.244Z,3.05
2023-03-12T15:16:53.890Z,3.25
2023-03-12T15:19:26.649Z,3.33
2023-03-12T15:21:54.122Z,3.30
2023-03-12T15:24:21.633Z,3.30
2023-03-12T15:26:48.770Z,4.13
2023-03-12T15:29:26.941Z,3.75
2023-03-12T15:32:00.853Z,3.05
2023-03-12T15:34:33.279Z,3.87
2023-03-12T15:37:21.256Z,3.75
2023-03-12T15:39:51.646Z,3.25
2023-03-12T15:42:24.215Z,3.38
2023-03-12T15:45:00.106Z,3.95
2023-03-12T15:47:29.308Z,3.63
2023-03-12T15:49:57.704Z,3.50
2023-03-12T15:52:36.096Z,3.42
2023-03-12T15:55:14.658Z,3.10
2023-03-12T15:57:45.698Z,3.80
2023-03-12T16:00:12.700Z,3.77
2023-03-12T16:02:47.216Z,3.70
2023-03-12T16:05:14.432Z,4.05
2023-03-12T16:07:41.436Z,4.43
2023-03-12T16:10:14.061Z,3.78
2023-03-12T16:12:44.554Z,4.00
2023-03-12T16:15:25.840Z,4.03
2023-03-12T16:17:52.842Z,4.00
2023-03-12T16:20:20.171Z,3.03
2023-03-12T16:22:47.293Z,4.38
2023-03-12T16:25:14.377Z,3.87
2023-03-12T16:27:49.722Z,4.10
2023-03-12T16:30:22.975Z,4.40
2023-03-12T16:32:50.274Z,3.80
2023-03-12T16:35:19.249Z,4.38
2023-03-12T16:37:47.237Z,3.80
2023-03-12T16:40:24.035Z,4.13
2023-03-12T16:43:02.705Z,3.75
2023-03-12T16:45:30.994Z,4.18
2023-03-12T16:48:03.578Z,3.80
2023-03-12T16:50:31.084Z,4.07
2023-03-12T16:52:58.990Z,4.45
2023-03-12T16:55:29.008Z,4.10
2023-03-12T16:57:59.337Z,4.82
2023-03-12T17:00:30.500Z,4.45
2023-03-12T17:02:59.115Z,4.80
2023-03-12T17:05:28.487Z,4.28
2023-03-12T17:07:58.357Z,5.18
2023-03-12T17:10:26.062Z,4.07
2023-03-12T17:12:54.021Z,4.72
2023-03-12T17:15:23.828Z,4.57
2023-03-12T17:17:51.006Z,4.80
2023-03-12T17:20:21.073Z,4.63
2023-03-12T17:22:48.333Z,4.30
2023-03-12T17:25:29.155Z,4.97
2023-03-12T17:27:57.439Z,4.47
2023-03-12T17:30:26.171Z,4.28
2023-03-12T17:32:54.442Z,4.75
2023-03-12T17:35:21.536Z,4.28
2023-03-12T17:37:48.663Z,4.00
2023-03-12T17:40:16.152Z,4.63
2023-03-12T17:42:43.296Z,4.22
2023-03-12T17:45:11.017Z,4.70
2023-03-12T17:47:38.963Z,4.70
2023-03-12T17:50:07.874Z,4.70
2023-03-12T17:52:35.120Z,4.40
2023-03-12T17:55:03.467Z,4.43
2023-03-12T17:57:30.903Z,4.00
2023-03-12T17:59:58.064Z,4.78
2023-03-12T18:02:25.166Z,6.68
2023-03-12T18:04:52.249Z,4.23
2023-03-12T18:07:19.331Z,4.30
2023-03-12T18:09:46.311Z,4.22
2023-03-12T18:12:13.357Z,4.00
2023-03-12T18:14:40.324Z,5.13
2023-03-12T18:17:07.402Z,4.17
2023-03-12T18:19:35.627Z,3.90
2023-03-12T18:22:02.872Z,4.35
2023-03-12T18:24:30.204Z,4.50
2023-03-12T18:26:59.332Z,3.83
2023-03-12T18:29:26.822Z,3.73
2023-03-12T18:31:53.990Z,4.22
2023-03-12T18:34:21.161Z,3.92
2023-03-12T18:36:48.257Z,3.88
2023-03-12T18:39:15.340Z,3.78
2023-03-12T18:41:42.447Z,3.23
2023-03-12T18:44:09.485Z,2.92
2023-03-12T18:46:36.616Z,3.17
2023-03-12T18:49:08.307Z,3.90
2023-03-12T18:51:35.928Z,2.97
2023-03-12T18:54:03.090Z,3.40
2023-03-12T18:56:30.192Z,3.40
2023-03-12T18:58:57.207Z,3.53
2023-03-12T19:01:24.513Z,3.17
2023-03-12T19:03:52.322Z,3.40
2023-03-12T19:06:19.394Z,2.40
2023-03-12T19:08:46.428Z,3.30
2023-03-12T19:11:15.838Z,3.50
2023-03-12T19:13:43.534Z,3.13
2023-03-12T19:16:12.900Z,2.97
2023-03-12T19:18:40.150Z,2.73
2023-03-12T19:21:08.523Z,3.20
2023-03-12T19:23:36.009Z,3.13
2023-03-12T19:26:03.770Z,2.97
2023-03-12T19:28:31.342Z,3.00
2023-03-12T19:31:07.030Z,2.90
2023-03-12T19:33:34.424Z,3.10
2023-03-12T19:36:02.007Z,3.22
2023-03-12T19:38:29.416Z,2.70
2023-03-12T19:40:58.217Z,3.30
2023-03-12T19:43:26.028Z,2.80
2023-03-12T19:45:54.811Z,2.90
2023-03-12T19:48:22.832Z,2.75
2023-03-12T19:50:51.608Z,3.20
2023-03-12T19:53:19.825Z,3.10
2023-03-12T19:55:48.511Z,2.97
2023-03-12T19:58:16.648Z,2.65
2023-03-12T20:00:43.841Z,2.80
2023-03-12T20:03:10.990Z,2.60
2023-03-12T20:05:38.492Z,3.30
2023-03-12T20:08:05.688Z,2.70
2023-03-12T20:10:32.926Z,2.80
2023-03-12T20:13:00.008Z,3.22
2023-03-12T20:15:27.014Z,2.67
2023-03-12T20:17:54.928Z,3.17
2023-03-12T20:20:21.891Z,3.00
2023-03-12T20:22:49.073Z,2.92
2023-03-12T20:25:16.128Z,3.60
2023-03-12T20:27:43.805Z,2.90
2023-03-12T20:30:11.403Z,7.97
2023-03-12T20:32:38.483Z,6.37
2023-03-12T20:35:06.117Z,3.33
2023-03-12T20:37:33.082Z,3.50
2023-03-12T20:40:00.138Z,2.70
2023-03-12T20:42:27.302Z,3.00
2023-03-12T20:44:54.334Z,2.57
2023-03-12T20:47:22.504Z,3.17
2023-03-12T20:49:49.512Z,3.70
2023-03-12T20:52:16.598Z,3.40
2023-03-12T20:54:43.698Z,3.40
2023-03-12T20:57:10.764Z,3.63
2023-03-12T20:59:37.780Z,3.05
2023-03-12T21:02:04.835Z,3.20
2023-03-12T21:04:31.930Z,3.15
2023-03-12T21:06:59.013Z,3.33
2023-03-12T21:09:26.069Z,2.90
2023-03-12T21:11:53.179Z,3.22
2023-03-12T21:14:20.229Z,3.50
2023-03-12T21:16:47.361Z,2.83
2023-03-12T21:19:14.558Z,3.17
2023-03-12T21:21:41.571Z,3.00
2023-03-12T21:24:08.603Z,3.47
2023-03-12T21:26:35.768Z,2.88
2023-03-12T21:29:03.238Z,3.42
2023-03-12T21:31:30.633Z,3.15
2023-03-12T21:33:58.197Z,3.17
2023-03-12T21:36:26.252Z,2.95
2023-03-12T21:38:53.302Z,3.40
2023-03-12T21:41:20.940Z,3.00
2023-03-12T21:43:48.319Z,3.25
2023-03-12T21:46:24.754Z,2.90
2023-03-12T21:48:52.065Z,3.10
2023-03-12T21:51:19.710Z,3.13
2023-03-12T21:53:46.750Z,2.70
2023-03-12T21:56:13.742Z,3.20
2023-03-12T21:58:41.163Z,3.40
2023-03-12T22:01:17.352Z,2.97
2023-03-12T22:03:45.921Z,3.13
2023-03-12T22:06:14.752Z,2.78
2023-03-12T22:08:43.016Z,2.88
2023-03-12T22:11:10.909Z,2.57
2023-03-12T22:13:38.236Z,2.88
2023-03-12T22:16:08.359Z,3.10
2023-03-12T22:18:41.141Z,2.85
2023-03-12T22:21:09.170Z,3.58
2023-03-12T22:23:36.956Z,3.40
2023-03-12T22:26:06.259Z,3.10
2023-03-12T22:28:34.115Z,3.10
2023-03-12T22:31:03.848Z,2.60
2023-03-12T22:33:31.212Z,3.13
2023-03-12T22:35:58.676Z,2.80
2023-03-12T22:38:26.113Z,2.78
2023-03-12T22:40:55.610Z,3.53
2023-03-12T22:43:24.983Z,3.92
2023-03-12T22:45:55.165Z,3.05
2023-03-12T22:48:22.153Z,3.17
2023-03-12T22:50:55.627Z,3.00
2023-03-12T22:53:23.288Z,3.60
2023-03-12T22:55:58.805Z,3.40
2023-03-12T22:58:26.628Z,3.55
2023-03-12T23:01:23.545Z,2.77
2023-03-12T23:03:51.007Z,2.83
2023-03-12T23:06:32.760Z,2.80
2023-03-12T23:08:59.962Z,3.15
2023-03-12T23:11:28.225Z,2.72
2023-03-12T23:13:55.786Z,2.70
2023-03-12T23:16:25.593Z,3.42
2023-03-12T23:18:52.924Z,2.33
2023-03-12T23:21:22.301Z,2.33
2023-03-12T23:23:50.816Z,2.80
2023-03-12T23:26:20.943Z,2.60
2023-03-12T23:28:48.511Z,2.72
2023-03-12T23:31:16.475Z,2.83
2023-03-12T23:33:43.963Z,2.70
2023-03-12T23:36:16.785Z,2.78
2023-03-12T23:38:44.889Z,2.57
2023-03-12T23:41:15.093Z,2.25
2023-03-12T23:43:42.187Z,3.10
2023-03-12T23:46:10.708Z,2.70
2023-03-12T23:48:39.049Z,3.00
2023-03-12T23:51:08.944Z,3.07
2023-03-12T23:53:37.326Z,2.60
2023-03-12T23:56:07.055Z,2.50
2023-03-12T23:58:34.201Z,2.63
